sensor_id;sensor_type;location;lat;lon;timestamp;pressure;altitude;pressure_sealevel;temperature;humidity
30897;BME280;64229;52.246;21.054;2022-12-29T00:01:34;100339.06;;;5.49;76.12
30897;BME280;64229;52.246;21.054;2022-12-29T00:03:59;100336.31;;;5.44;75.86
30897;BME280;64229;52.246;21.054;2022-12-29T00:06:25;100350.91;;;5.46;76.40
30897;BME280;64229;52.246;21.054;2022-12-29T00:08:51;100348.84;;;5.48;76.36
30897;BME280;64229;52.246;21.054;2022-12-29T00:11:19;100353.66;;;5.51;75.88
30897;BME280;64229;52.246;21.054;2022-12-29T00:13:46;100347.34;;;5.52;75.66
30897;BME280;64229;52.246;21.054;2022-12-29T00:16:31;100326.38;;;5.51;75.37
30897;BME280;64229;52.246;21.054;2022-12-29T00:18:57;100339.53;;;5.58;75.12
30897;BME280;64229;52.246;21.054;2022-12-29T00:21:24;100328.38;;;5.44;75.67
30897;BME280;64229;52.246;21.054;2022-12-29T00:24:19;100334.47;;;5.56;75.31
30897;BME280;64229;52.246;21.054;2022-12-29T00:29:48;100331.25;;;5.66;75.24
30897;BME280;64229;52.246;21.054;2022-12-29T00:32:32;100329.16;;;5.68;75.11
30897;BME280;64229;52.246;21.054;2022-12-29T00:35:28;100341.38;;;5.57;75.50
30897;BME280;64229;52.246;21.054;2022-12-29T00:37:55;100340.09;;;5.48;75.98
30897;BME280;64229;52.246;21.054;2022-12-29T00:40:40;100337.09;;;5.44;75.87
30897;BME280;64229;52.246;21.054;2022-12-29T00:43:24;100342.63;;;5.43;76.21
30897;BME280;64229;52.246;21.054;2022-12-29T00:46:08;100341.69;;;5.49;75.67
30897;BME280;64229;52.246;21.054;2022-12-29T00:48:34;100343.53;;;5.60;75.22
30897;BME280;64229;52.246;21.054;2022-12-29T00:51:18;100322.25;;;5.55;75.48
30897;BME280;64229;52.246;21.054;2022-12-29T00:53:43;100349.53;;;5.67;74.86
30897;BME280;64229;52.246;21.054;2022-12-29T00:56:08;100334.22;;;5.69;75.01
30897;BME280;64229;52.246;21.054;2022-12-29T00:58:34;100331.09;;;5.72;74.67
30897;BME280;64229;52.246;21.054;2022-12-29T01:01:07;100328.34;;;5.67;75.25
30897;BME280;64229;52.246;21.054;2022-12-29T01:03:35;100326.50;;;5.68;75.30
30897;BME280;64229;52.246;21.054;2022-12-29T01:06:05;100327.91;;;5.59;75.56
30897;BME280;64229;52.246;21.054;2022-12-29T01:08:31;100325.72;;;5.56;75.83
30897;BME280;64229;52.246;21.054;2022-12-29T01:11:05;100319.13;;;5.81;74.82
30897;BME280;64229;52.246;21.054;2022-12-29T01:13:31;100308.44;;;5.76;74.80
30897;BME280;64229;52.246;21.054;2022-12-29T01:15:56;100304.41;;;5.97;74.01
30897;BME280;64229;52.246;21.054;2022-12-29T01:18:23;100307.16;;;5.91;73.88
30897;BME280;64229;52.246;21.054;2022-12-29T01:20:49;100301.94;;;5.84;74.31
30897;BME280;64229;52.246;21.054;2022-12-29T01:23:15;100303.38;;;5.75;74.45
30897;BME280;64229;52.246;21.054;2022-12-29T01:25:40;100299.69;;;5.76;74.41
30897;BME280;64229;52.246;21.054;2022-12-29T01:28:06;100299.44;;;5.89;74.17
30897;BME280;64229;52.246;21.054;2022-12-29T01:30:34;100292.88;;;5.92;74.18
30897;BME280;64229;52.246;21.054;2022-12-29T01:33:00;100293.09;;;6.02;73.69
30897;BME280;64229;52.246;21.054;2022-12-29T01:35:25;100289.56;;;5.96;73.49
30897;BME280;64229;52.246;21.054;2022-12-29T01:37:51;100285.41;;;5.77;74.13
30897;BME280;64229;52.246;21.054;2022-12-29T01:40:16;100276.75;;;5.81;73.52
30897;BME280;64229;52.246;21.054;2022-12-29T01:42:42;100284.03;;;5.74;73.89
30897;BME280;64229;52.246;21.054;2022-12-29T01:45:12;100269.28;;;5.78;74.09
30897;BME280;64229;52.246;21.054;2022-12-29T01:47:42;100266.19;;;5.58;74.23
30897;BME280;64229;52.246;21.054;2022-12-29T01:50:11;100260.59;;;5.43;74.95
30897;BME280;64229;52.246;21.054;2022-12-29T01:52:43;100271.50;;;5.58;74.32
30897;BME280;64229;52.246;21.054;2022-12-29T01:55:10;100260.19;;;5.63;74.09
30897;BME280;64229;52.246;21.054;2022-12-29T01:57:39;100267.09;;;5.75;73.83
30897;BME280;64229;52.246;21.054;2022-12-29T02:00:09;100267.31;;;5.74;73.73
30897;BME280;64229;52.246;21.054;2022-12-29T02:02:36;100262.28;;;5.61;74.22
30897;BME280;64229;52.246;21.054;2022-12-29T02:05:14;100255.03;;;5.56;74.25
30897;BME280;64229;52.246;21.054;2022-12-29T02:07:41;100260.56;;;5.55;74.53
30897;BME280;64229;52.246;21.054;2022-12-29T02:10:07;100247.78;;;5.40;75.37
30897;BME280;64229;52.246;21.054;2022-12-29T02:12:33;100253.88;;;5.40;75.35
30897;BME280;64229;52.246;21.054;2022-12-29T02:15:00;100246.75;;;5.41;75.89
30897;BME280;64229;52.246;21.054;2022-12-29T02:23:21;100253.44;;;5.32;76.95
30897;BME280;64229;52.246;21.054;2022-12-29T02:31:37;100255.41;;;5.13;79.25
30897;BME280;64229;52.246;21.054;2022-12-29T02:37:09;100251.00;;;5.18;79.01
30897;BME280;64229;52.246;21.054;2022-12-29T02:47:35;100274.91;;;4.88;82.39
30897;BME280;64229;52.246;21.054;2022-12-29T02:50:07;100264.13;;;4.90;82.03
30897;BME280;64229;52.246;21.054;2022-12-29T02:52:46;100273.09;;;5.01;81.13
30897;BME280;64229;52.246;21.054;2022-12-29T02:55:16;100261.81;;;4.93;82.12
30897;BME280;64229;52.246;21.054;2022-12-29T02:57:42;100280.81;;;5.02;81.32
30897;BME280;64229;52.246;21.054;2022-12-29T03:00:08;100265.25;;;4.94;82.52
30897;BME280;64229;52.246;21.054;2022-12-29T03:03:04;100278.03;;;4.97;83.48
30897;BME280;64229;52.246;21.054;2022-12-29T03:13:49;100274.44;;;4.68;86.73
30897;BME280;64229;52.246;21.054;2022-12-29T03:16:44;100274.44;;;4.68;86.94
30897;BME280;64229;52.246;21.054;2022-12-29T03:19:21;100274.19;;;4.70;87.58
30897;BME280;64229;52.246;21.054;2022-12-29T03:21:59;100269.56;;;4.65;88.45
30897;BME280;64229;52.246;21.054;2022-12-29T03:24:48;100257.63;;;4.62;88.51
30897;BME280;64229;52.246;21.054;2022-12-29T03:27:19;100260.38;;;4.68;88.13
30897;BME280;64229;52.246;21.054;2022-12-29T03:29:48;100249.72;;;4.74;88.22
30897;BME280;64229;52.246;21.054;2022-12-29T03:32:19;100243.63;;;4.85;88.02
30897;BME280;64229;52.246;21.054;2022-12-29T03:34:47;100247.78;;;5.05;87.46
30897;BME280;64229;52.246;21.054;2022-12-29T03:37:18;100230.88;;;5.06;87.50
30897;BME280;64229;52.246;21.054;2022-12-29T03:39:46;100214.53;;;4.85;87.84
30897;BME280;64229;52.246;21.054;2022-12-29T03:42:18;100212.50;;;4.46;90.86
30897;BME280;64229;52.246;21.054;2022-12-29T03:44:45;100195.44;;;4.18;92.45
30897;BME280;64229;52.246;21.054;2022-12-29T03:47:12;100181.63;;;4.04;94.00
30897;BME280;64229;52.246;21.054;2022-12-29T03:49:38;100178.78;;;3.88;95.04
30897;BME280;64229;52.246;21.054;2022-12-29T03:52:04;100156.97;;;3.92;95.67
30897;BME280;64229;52.246;21.054;2022-12-29T03:54:31;100171.50;;;4.01;94.78
30897;BME280;64229;52.246;21.054;2022-12-29T03:56:56;100218.00;;;4.02;94.76
30897;BME280;64229;52.246;21.054;2022-12-29T03:59:22;100217.19;;;4.02;95.13
30897;BME280;64229;52.246;21.054;2022-12-29T04:01:47;100191.16;;;4.05;95.32
30897;BME280;64229;52.246;21.054;2022-12-29T04:04:13;100192.22;;;4.16;93.97
30897;BME280;64229;52.246;21.054;2022-12-29T04:06:39;100192.13;;;4.23;93.69
30897;BME280;64229;52.246;21.054;2022-12-29T04:09:05;100213.81;;;4.25;93.54
30897;BME280;64229;52.246;21.054;2022-12-29T04:11:30;100187.31;;;4.31;94.02
30897;BME280;64229;52.246;21.054;2022-12-29T04:13:56;100185.97;;;4.41;92.85
30897;BME280;64229;52.246;21.054;2022-12-29T04:16:21;100170.31;;;4.27;92.16
30897;BME280;64229;52.246;21.054;2022-12-29T04:18:47;100187.00;;;4.40;91.50
30897;BME280;64229;52.246;21.054;2022-12-29T04:21:13;100181.25;;;4.43;91.23
30897;BME280;64229;52.246;21.054;2022-12-29T04:23:38;100184.03;;;4.36;91.28
30897;BME280;64229;52.246;21.054;2022-12-29T04:26:05;100190.91;;;4.37;91.30
30897;BME280;64229;52.246;21.054;2022-12-29T04:28:35;100201.75;;;4.47;90.20
30897;BME280;64229;52.246;21.054;2022-12-29T04:31:02;100203.91;;;4.50;90.42
30897;BME280;64229;52.246;21.054;2022-12-29T04:33:27;100191.47;;;4.39;90.56
30897;BME280;64229;52.246;21.054;2022-12-29T04:35:53;100191.03;;;4.42;90.41
30897;BME280;64229;52.246;21.054;2022-12-29T04:38:20;100168.75;;;4.38;90.21
30897;BME280;64229;52.246;21.054;2022-12-29T04:40:46;100157.00;;;4.34;89.93
30897;BME280;64229;52.246;21.054;2022-12-29T04:43:12;100157.91;;;4.28;90.29
30897;BME280;64229;52.246;21.054;2022-12-29T04:45:40;100169.06;;;4.30;90.87
30897;BME280;64229;52.246;21.054;2022-12-29T04:48:07;100154.91;;;4.24;90.20
30897;BME280;64229;52.246;21.054;2022-12-29T04:50:33;100173.84;;;4.21;90.26
30897;BME280;64229;52.246;21.054;2022-12-29T04:52:58;100149.50;;;4.19;89.78
30897;BME280;64229;52.246;21.054;2022-12-29T04:55:24;100174.34;;;4.30;89.79
30897;BME280;64229;52.246;21.054;2022-12-29T04:57:49;100172.72;;;4.29;89.71
30897;BME280;64229;52.246;21.054;2022-12-29T05:00:15;100160.00;;;4.26;88.67
30897;BME280;64229;52.246;21.054;2022-12-29T05:02:40;100155.84;;;4.30;89.22
30897;BME280;64229;52.246;21.054;2022-12-29T05:05:06;100139.78;;;4.43;88.04
30897;BME280;64229;52.246;21.054;2022-12-29T05:07:32;100155.63;;;4.43;88.14
30897;BME280;64229;52.246;21.054;2022-12-29T05:09:59;100144.50;;;4.41;87.74
30897;BME280;64229;52.246;21.054;2022-12-29T05:12:24;100145.84;;;4.32;87.23
30897;BME280;64229;52.246;21.054;2022-12-29T05:14:50;100152.06;;;4.26;87.85
30897;BME280;64229;52.246;21.054;2022-12-29T05:17:15;100153.53;;;4.22;88.36
30897;BME280;64229;52.246;21.054;2022-12-29T05:19:41;100143.13;;;4.39;86.89
30897;BME280;64229;52.246;21.054;2022-12-29T05:22:06;100148.50;;;4.44;85.50
30897;BME280;64229;52.246;21.054;2022-12-29T05:24:32;100144.97;;;4.38;86.05
30897;BME280;64229;52.246;21.054;2022-12-29T05:26:57;100154.03;;;4.42;84.99
30897;BME280;64229;52.246;21.054;2022-12-29T05:29:22;100133.81;;;4.36;85.21
30897;BME280;64229;52.246;21.054;2022-12-29T05:31:48;100133.22;;;4.34;84.95
30897;BME280;64229;52.246;21.054;2022-12-29T05:34:13;100127.03;;;4.40;84.38
30897;BME280;64229;52.246;21.054;2022-12-29T05:36:39;100131.59;;;4.33;84.42
30897;BME280;64229;52.246;21.054;2022-12-29T05:39:05;100103.44;;;4.15;84.21
30897;BME280;64229;52.246;21.054;2022-12-29T05:41:30;100097.50;;;4.31;83.14
30897;BME280;64229;52.246;21.054;2022-12-29T05:43:56;100113.13;;;4.33;83.63
30897;BME280;64229;52.246;21.054;2022-12-29T05:46:21;100109.56;;;4.39;82.75
30897;BME280;64229;52.246;21.054;2022-12-29T05:48:46;100115.75;;;4.33;83.54
30897;BME280;64229;52.246;21.054;2022-12-29T05:51:12;100110.44;;;4.21;83.38
30897;BME280;64229;52.246;21.054;2022-12-29T05:53:37;100103.53;;;4.09;83.61
30897;BME280;64229;52.246;21.054;2022-12-29T05:56:03;100115.72;;;4.10;83.48
30897;BME280;64229;52.246;21.054;2022-12-29T05:58:28;100115.13;;;4.07;83.40
30897;BME280;64229;52.246;21.054;2022-12-29T06:00:54;100111.38;;;4.15;82.66
30897;BME280;64229;52.246;21.054;2022-12-29T06:03:19;100118.16;;;4.23;82.35
30897;BME280;64229;52.246;21.054;2022-12-29T06:05:45;100117.34;;;4.22;82.44
30897;BME280;64229;52.246;21.054;2022-12-29T06:08:11;100111.63;;;4.25;81.32
30897;BME280;64229;52.246;21.054;2022-12-29T06:10:37;100109.66;;;4.21;81.36
30897;BME280;64229;52.246;21.054;2022-12-29T06:13:02;100094.94;;;4.25;81.40
30897;BME280;64229;52.246;21.054;2022-12-29T06:15:31;100102.19;;;4.29;80.73
30897;BME280;64229;52.246;21.054;2022-12-29T06:17:56;100101.50;;;4.34;79.89
30897;BME280;64229;52.246;21.054;2022-12-29T06:20:22;100109.09;;;4.30;79.91
30897;BME280;64229;52.246;21.054;2022-12-29T06:22:47;100113.56;;;4.30;79.90
30897;BME280;64229;52.246;21.054;2022-12-29T06:25:14;100111.63;;;4.37;79.46
30897;BME280;64229;52.246;21.054;2022-12-29T06:27:41;100114.16;;;4.44;79.18
30897;BME280;64229;52.246;21.054;2022-12-29T06:30:07;100109.00;;;4.49;78.54
30897;BME280;64229;52.246;21.054;2022-12-29T06:32:32;100112.47;;;4.61;78.29
30897;BME280;64229;52.246;21.054;2022-12-29T06:34:58;100115.66;;;4.51;78.36
30897;BME280;64229;52.246;21.054;2022-12-29T06:37:24;100099.34;;;4.43;78.26
30897;BME280;64229;52.246;21.054;2022-12-29T06:39:50;100117.16;;;4.47;78.85
30897;BME280;64229;52.246;21.054;2022-12-29T06:42:15;100124.75;;;4.67;78.22
30897;BME280;64229;52.246;21.054;2022-12-29T06:44:41;100123.03;;;4.61;78.66
30897;BME280;64229;52.246;21.054;2022-12-29T06:47:06;100124.97;;;4.54;79.00
30897;BME280;64229;52.246;21.054;2022-12-29T06:49:32;100135.44;;;4.60;78.79
30897;BME280;64229;52.246;21.054;2022-12-29T06:51:57;100129.47;;;4.65;78.75
30897;BME280;64229;52.246;21.054;2022-12-29T06:54:24;100127.63;;;4.65;79.17
30897;BME280;64229;52.246;21.054;2022-12-29T06:56:50;100139.22;;;4.76;78.72
30897;BME280;64229;52.246;21.054;2022-12-29T06:59:15;100136.25;;;4.73;78.61
30897;BME280;64229;52.246;21.054;2022-12-29T07:01:41;100128.31;;;4.73;77.89
30897;BME280;64229;52.246;21.054;2022-12-29T07:04:06;100118.66;;;4.78;77.19
30897;BME280;64229;52.246;21.054;2022-12-29T07:06:32;100121.41;;;4.83;77.14
30897;BME280;64229;52.246;21.054;2022-12-29T07:08:57;100110.72;;;4.78;76.71
30897;BME280;64229;52.246;21.054;2022-12-29T07:11:23;100107.88;;;4.80;76.62
30897;BME280;64229;52.246;21.054;2022-12-29T07:13:49;100108.66;;;4.80;76.35
30897;BME280;64229;52.246;21.054;2022-12-29T07:16:14;100108.97;;;4.96;76.11
30897;BME280;64229;52.246;21.054;2022-12-29T07:18:40;100105.66;;;4.88;75.91
30897;BME280;64229;52.246;21.054;2022-12-29T07:21:05;100108.41;;;4.93;75.89
30897;BME280;64229;52.246;21.054;2022-12-29T07:23:31;100111.53;;;5.02;75.48
30897;BME280;64229;52.246;21.054;2022-12-29T07:26:15;100108.16;;;5.07;75.06
30897;BME280;64229;52.246;21.054;2022-12-29T07:28:43;100101.03;;;5.07;75.24
30897;BME280;64229;52.246;21.054;2022-12-29T07:31:17;100094.13;;;5.06;74.80
30897;BME280;64229;52.246;21.054;2022-12-29T07:33:44;100095.88;;;5.12;74.91
30897;BME280;64229;52.246;21.054;2022-12-29T07:36:10;100080.78;;;5.13;74.81
30897;BME280;64229;52.246;21.054;2022-12-29T07:38:36;100074.56;;;5.07;74.13
30897;BME280;64229;52.246;21.054;2022-12-29T07:41:01;100098.84;;;5.16;74.34
30897;BME280;64229;52.246;21.054;2022-12-29T07:43:27;100085.97;;;5.08;74.22
30897;BME280;64229;52.246;21.054;2022-12-29T07:45:52;100092.19;;;5.13;74.26
30897;BME280;64229;52.246;21.054;2022-12-29T07:48:18;100100.69;;;5.15;74.42
30897;BME280;64229;52.246;21.054;2022-12-29T07:50:44;100104.25;;;5.21;74.36
30897;BME280;64229;52.246;21.054;2022-12-29T07:53:09;100102.25;;;5.28;73.90
30897;BME280;64229;52.246;21.054;2022-12-29T07:55:35;100100.09;;;5.25;73.38
30897;BME280;64229;52.246;21.054;2022-12-29T07:58:00;100104.63;;;5.41;73.22
30897;BME280;64229;52.246;21.054;2022-12-29T08:00:26;100097.41;;;5.37;73.14
30897;BME280;64229;52.246;21.054;2022-12-29T08:02:52;100096.47;;;5.43;73.51
30897;BME280;64229;52.246;21.054;2022-12-29T08:05:17;100098.66;;;5.46;73.07
30897;BME280;64229;52.246;21.054;2022-12-29T08:07:43;100084.94;;;5.49;73.03
30897;BME280;64229;52.246;21.054;2022-12-29T08:10:10;100081.59;;;5.42;72.62
30897;BME280;64229;52.246;21.054;2022-12-29T08:12:37;100084.13;;;5.48;72.93
30897;BME280;64229;52.246;21.054;2022-12-29T08:15:04;100089.63;;;5.59;72.56
30897;BME280;64229;52.246;21.054;2022-12-29T08:17:29;100085.00;;;5.82;71.79
30897;BME280;64229;52.246;21.054;2022-12-29T08:19:55;100090.63;;;5.98;71.08
30897;BME280;64229;52.246;21.054;2022-12-29T08:22:21;100080.34;;;6.01;71.43
30897;BME280;64229;52.246;21.054;2022-12-29T08:24:46;100077.44;;;6.03;69.99
30897;BME280;64229;52.246;21.054;2022-12-29T08:27:12;100081.13;;;6.02;70.22
30897;BME280;64229;52.246;21.054;2022-12-29T08:29:37;100086.59;;;6.12;70.06
30897;BME280;64229;52.246;21.054;2022-12-29T08:32:03;100077.53;;;6.25;69.48
30897;BME280;64229;52.246;21.054;2022-12-29T08:34:31;100083.31;;;6.22;69.14
30897;BME280;64229;52.246;21.054;2022-12-29T08:36:56;100085.06;;;6.16;69.42
30897;BME280;64229;52.246;21.054;2022-12-29T08:39:22;100083.19;;;6.28;69.36
30897;BME280;64229;52.246;21.054;2022-12-29T08:41:47;100094.16;;;6.20;69.01
30897;BME280;64229;52.246;21.054;2022-12-29T08:44:13;100089.97;;;6.24;69.47
30897;BME280;64229;52.246;21.054;2022-12-29T08:46:38;100101.06;;;6.55;68.64
30897;BME280;64229;52.246;21.054;2022-12-29T08:49:04;100110.06;;;6.71;67.67
30897;BME280;64229;52.246;21.054;2022-12-29T08:51:30;100116.09;;;6.32;68.37
30897;BME280;64229;52.246;21.054;2022-12-29T08:53:55;100110.63;;;6.22;68.66
30897;BME280;64229;52.246;21.054;2022-12-29T08:56:21;100102.69;;;6.22;68.71
30897;BME280;64229;52.246;21.054;2022-12-29T08:58:49;100095.78;;;6.21;68.74
30897;BME280;64229;52.246;21.054;2022-12-29T09:01:14;100101.63;;;6.23;68.83
30897;BME280;64229;52.246;21.054;2022-12-29T09:03:40;100098.50;;;6.26;68.58
30897;BME280;64229;52.246;21.054;2022-12-29T09:06:05;100102.50;;;6.46;68.57
30897;BME280;64229;52.246;21.054;2022-12-29T09:08:31;100096.66;;;6.60;67.82
30897;BME280;64229;52.246;21.054;2022-12-29T09:11:08;100091.25;;;6.72;67.16
30897;BME280;64229;52.246;21.054;2022-12-29T09:13:34;100092.84;;;6.73;67.13
30897;BME280;64229;52.246;21.054;2022-12-29T09:16:00;100093.25;;;6.65;67.34
30897;BME280;64229;52.246;21.054;2022-12-29T09:18:26;100096.66;;;6.60;67.46
30897;BME280;64229;52.246;21.054;2022-12-29T09:21:02;100097.44;;;6.61;67.63
30897;BME280;64229;52.246;21.054;2022-12-29T09:23:28;100087.34;;;6.80;67.33
30897;BME280;64229;52.246;21.054;2022-12-29T09:25:54;100082.13;;;6.85;67.13
30897;BME280;64229;52.246;21.054;2022-12-29T09:28:20;100081.50;;;6.78;67.73
30897;BME280;64229;52.246;21.054;2022-12-29T09:30:46;100068.56;;;6.81;67.40
30897;BME280;64229;52.246;21.054;2022-12-29T09:33:12;100073.38;;;7.06;66.72
30897;BME280;64229;52.246;21.054;2022-12-29T09:35:41;100077.53;;;7.19;66.44
30897;BME280;64229;52.246;21.054;2022-12-29T09:38:07;100078.16;;;7.04;66.75
30897;BME280;64229;52.246;21.054;2022-12-29T09:40:33;100075.97;;;7.01;66.72
30897;BME280;64229;52.246;21.054;2022-12-29T09:43:17;100075.13;;;6.79;67.17
30897;BME280;64229;52.246;21.054;2022-12-29T09:45:59;100072.94;;;6.54;68.24
30897;BME280;64229;52.246;21.054;2022-12-29T09:48:36;100059.47;;;6.38;68.76
30897;BME280;64229;52.246;21.054;2022-12-29T09:51:11;100066.19;;;6.46;68.61
30897;BME280;64229;52.246;21.054;2022-12-29T09:53:41;100051.78;;;6.59;68.47
30897;BME280;64229;52.246;21.054;2022-12-29T09:56:18;100058.53;;;6.66;68.07
30897;BME280;64229;52.246;21.054;2022-12-29T09:58:47;100057.03;;;6.71;67.97
30897;BME280;64229;52.246;21.054;2022-12-29T10:03:53;100039.06;;;6.78;67.49
30897;BME280;64229;52.246;21.054;2022-12-29T10:06:44;100049.00;;;6.87;67.36
30897;BME280;64229;52.246;21.054;2022-12-29T10:09:34;100040.53;;;6.90;67.07
30897;BME280;64229;52.246;21.054;2022-12-29T10:18:15;100038.22;;;6.94;67.30
30897;BME280;64229;52.246;21.054;2022-12-29T10:20:54;100035.22;;;6.90;67.06
30897;BME280;64229;52.246;21.054;2022-12-29T10:25:45;100027.97;;;7.03;66.48
30897;BME280;64229;52.246;21.054;2022-12-29T10:28:34;100028.94;;;6.75;67.56
30897;BME280;64229;52.246;21.054;2022-12-29T10:31:01;100015.31;;;6.66;67.58
30897;BME280;64229;52.246;21.054;2022-12-29T10:33:37;100030.97;;;6.67;67.69
30897;BME280;64229;52.246;21.054;2022-12-29T10:36:16;100031.22;;;6.66;68.03
30897;BME280;64229;52.246;21.054;2022-12-29T10:39:06;100022.03;;;6.74;67.55
30897;BME280;64229;52.246;21.054;2022-12-29T10:41:40;100029.56;;;6.82;67.76
30897;BME280;64229;52.246;21.054;2022-12-29T10:44:13;100020.06;;;6.86;67.40
30897;BME280;64229;52.246;21.054;2022-12-29T10:46:40;100020.13;;;6.91;67.24
30897;BME280;64229;52.246;21.054;2022-12-29T10:49:14;100021.38;;;7.05;66.58
30897;BME280;64229;52.246;21.054;2022-12-29T10:51:42;100020.13;;;7.13;66.56
30897;BME280;64229;52.246;21.054;2022-12-29T10:54:23;100015.94;;;7.17;66.33
30897;BME280;64229;52.246;21.054;2022-12-29T10:56:59;100007.03;;;7.28;66.53
30897;BME280;64229;52.246;21.054;2022-12-29T10:59:29;100012.44;;;7.38;65.99
30897;BME280;64229;52.246;21.054;2022-12-29T11:07:08;100007.38;;;7.37;66.01
30897;BME280;64229;52.246;21.054;2022-12-29T11:09:36;100009.53;;;7.40;66.13
30897;BME280;64229;52.246;21.054;2022-12-29T11:14:48;100010.78;;;7.59;65.78
30897;BME280;64229;52.246;21.054;2022-12-29T11:17:25;100012.28;;;7.50;65.84
30897;BME280;64229;52.246;21.054;2022-12-29T11:19:51;100006.97;;;7.50;65.86
30897;BME280;64229;52.246;21.054;2022-12-29T11:22:28;100009.22;;;7.63;65.43
30897;BME280;64229;52.246;21.054;2022-12-29T11:24:54;100003.16;;;7.68;65.29
30897;BME280;64229;52.246;21.054;2022-12-29T11:27:29;99998.75;;;7.78;64.96
30897;BME280;64229;52.246;21.054;2022-12-29T11:29:55;99993.78;;;7.92;64.19
30897;BME280;64229;52.246;21.054;2022-12-29T11:32:25;99994.34;;;7.94;64.05
30897;BME280;64229;52.246;21.054;2022-12-29T11:34:51;100007.06;;;7.87;64.47
30897;BME280;64229;52.246;21.054;2022-12-29T11:39:54;100008.25;;;7.74;65.42
30897;BME280;64229;52.246;21.054;2022-12-29T11:42:35;100012.56;;;7.80;65.24
30897;BME280;64229;52.246;21.054;2022-12-29T11:45:09;100002.09;;;7.69;65.33
30897;BME280;64229;52.246;21.054;2022-12-29T11:47:42;99977.41;;;7.41;65.29
30897;BME280;64229;52.246;21.054;2022-12-29T11:50:18;100002.53;;;7.56;66.24
30897;BME280;64229;52.246;21.054;2022-12-29T11:52:44;99998.75;;;7.51;66.12
30897;BME280;64229;52.246;21.054;2022-12-29T11:55:20;100003.31;;;7.56;66.04
30897;BME280;64229;52.246;21.054;2022-12-29T11:57:47;100000.78;;;7.71;65.78
30897;BME280;64229;52.246;21.054;2022-12-29T12:00:19;99999.19;;;7.70;65.82
30897;BME280;64229;52.246;21.054;2022-12-29T12:02:55;100008.50;;;7.73;65.82
30897;BME280;64229;52.246;21.054;2022-12-29T12:05:33;99997.88;;;7.73;66.02
30897;BME280;64229;52.246;21.054;2022-12-29T12:11:23;99999.81;;;7.82;65.98
30897;BME280;64229;52.246;21.054;2022-12-29T12:14:18;99976.19;;;7.86;65.39
30897;BME280;64229;52.246;21.054;2022-12-29T12:16:55;99986.09;;;7.96;65.56
30897;BME280;64229;52.246;21.054;2022-12-29T12:19:53;99996.44;;;7.92;66.10
30897;BME280;64229;52.246;21.054;2022-12-29T12:22:35;99994.69;;;8.08;65.52
30897;BME280;64229;52.246;21.054;2022-12-29T12:25:17;99995.53;;;8.13;65.19
30897;BME280;64229;52.246;21.054;2022-12-29T12:30:19;99985.31;;;7.95;65.95
30897;BME280;64229;52.246;21.054;2022-12-29T12:33:04;99987.41;;;7.93;66.44
30897;BME280;64229;52.246;21.054;2022-12-29T12:41:37;99963.84;;;8.07;65.92
30897;BME280;64229;52.246;21.054;2022-12-29T12:44:39;99956.47;;;8.14;65.60
30897;BME280;64229;52.246;21.054;2022-12-29T12:53:06;99960.53;;;8.27;65.37
30897;BME280;64229;52.246;21.054;2022-12-29T12:56:06;99958.41;;;8.29;65.71
30897;BME280;64229;52.246;21.054;2022-12-29T12:58:59;99948.81;;;8.23;65.76
30897;BME280;64229;52.246;21.054;2022-12-29T13:01:55;99957.88;;;8.27;65.63
30897;BME280;64229;52.246;21.054;2022-12-29T13:20:49;99973.69;;;8.44;65.39
30897;BME280;64229;52.246;21.054;2022-12-29T13:29:00;99969.44;;;8.43;65.60
30897;BME280;64229;52.246;21.054;2022-12-29T13:31:36;99970.03;;;8.60;64.95
30897;BME280;64229;52.246;21.054;2022-12-29T13:36:45;99966.78;;;8.48;65.34
30897;BME280;64229;52.246;21.054;2022-12-29T13:39:20;99964.94;;;8.48;65.16
30897;BME280;64229;52.246;21.054;2022-12-29T13:41:53;99970.84;;;8.60;64.85
30897;BME280;64229;52.246;21.054;2022-12-29T13:44:31;99965.53;;;8.60;64.87
30897;BME280;64229;52.246;21.054;2022-12-29T13:47:01;99969.00;;;8.66;64.80
30897;BME280;64229;52.246;21.054;2022-12-29T13:49:30;99961.31;;;8.64;64.70
30897;BME280;64229;52.246;21.054;2022-12-29T13:51:59;99978.03;;;8.60;64.85
30897;BME280;64229;52.246;21.054;2022-12-29T13:54:39;99982.03;;;8.62;65.19
30897;BME280;64229;52.246;21.054;2022-12-29T13:57:39;99980.69;;;8.60;65.48
30897;BME280;64229;52.246;21.054;2022-12-29T14:00:13;99981.75;;;8.59;65.15
30897;BME280;64229;52.246;21.054;2022-12-29T14:07:43;99988.38;;;8.51;65.90
30897;BME280;64229;52.246;21.054;2022-12-29T14:15:45;99986.19;;;8.43;66.29
30897;BME280;64229;52.246;21.054;2022-12-29T14:18:21;99986.72;;;8.45;66.54
30897;BME280;64229;52.246;21.054;2022-12-29T14:20:54;99985.16;;;8.49;66.55
30897;BME280;64229;52.246;21.054;2022-12-29T14:23:29;99983.53;;;8.43;66.47
30897;BME280;64229;52.246;21.054;2022-12-29T14:26:10;99977.41;;;8.43;66.64
30897;BME280;64229;52.246;21.054;2022-12-29T14:28:39;99978.22;;;8.48;66.34
30897;BME280;64229;52.246;21.054;2022-12-29T14:36:38;99968.44;;;8.59;65.50
30897;BME280;64229;52.246;21.054;2022-12-29T14:44:52;99962.06;;;8.60;65.59
30897;BME280;64229;52.246;21.054;2022-12-29T14:49:45;99975.66;;;8.63;65.61
30897;BME280;64229;52.246;21.054;2022-12-29T14:52:21;99978.88;;;8.70;65.20
30897;BME280;64229;52.246;21.054;2022-12-29T14:54:50;99979.63;;;8.61;65.67
30897;BME280;64229;52.246;21.054;2022-12-29T14:57:31;99972.16;;;8.53;66.17
30897;BME280;64229;52.246;21.054;2022-12-29T15:00:23;99977.22;;;8.59;65.89
30897;BME280;64229;52.246;21.054;2022-12-29T15:03:05;99976.41;;;8.59;65.63
30897;BME280;64229;52.246;21.054;2022-12-29T15:05:59;99973.50;;;8.55;65.96
30897;BME280;64229;52.246;21.054;2022-12-29T15:08:37;99980.41;;;8.51;65.99
30897;BME280;64229;52.246;21.054;2022-12-29T15:11:19;99971.91;;;8.59;65.75